Terminal Aerodrome Forecast
Issued by NWS Atlanta, GA

Home | Current Version | Previous Version | Text Only | Print | Product List | Glossary On
Versions: 1 2 3 4 5 6 7 8 9 10 11 12 13 14 15 16 17 18 19 20 21 22 23 24 25 26 27 28 29 30 31 32 33 34 35 36 37 38 39
000
FTUS42 KFFC 240500
TAFATL
TAF
KATL 240538Z 2406/2512 26004KT P6SM SCT040 SCT100
     FM240900 25004KT 6SM BR SCT025
     FM241500 26007KT P6SM BKN035
     FM241700 27009G18KT P6SM VCSH BKN045 PROB30 2418/2423 5SM TSRA
      BR BKN025CB
     FM242300 30007KT P6SM VCSH SCT050 BKN100
     FM250300 29005KT P6SM SCT120 BKN250=

USA.gov is the U.S. government's official web portal to all federal, state and local government web resources and services.